createdAt,value
2017-10-24T00:00:27.247Z,85.00
2017-10-24T00:03:00.938Z,84.90
2017-10-24T00:05:34.654Z,84.90
2017-10-24T00:08:09.074Z,85.40
2017-10-24T00:10:42.817Z,84.90
2017-10-24T00:13:16.499Z,84.90
2017-10-24T00:15:50.356Z,85.00
2017-10-24T00:18:23.993Z,84.90
2017-10-24T00:20:57.817Z,84.80
2017-10-24T00:23:31.690Z,85.30
2017-10-24T00:26:05.428Z,85.10
2017-10-24T00:28:40.021Z,85.70
2017-10-24T00:31:13.820Z,85.20
2017-10-24T00:33:48.314Z,85.70
2017-10-24T00:36:22.010Z,85.70
2017-10-24T00:38:56.043Z,85.30
2017-10-24T00:41:29.802Z,85.00
2017-10-24T00:44:03.539Z,84.90
2017-10-24T00:46:37.366Z,84.10
2017-10-24T00:49:11.219Z,84.10
2017-10-24T00:51:44.969Z,83.80
2017-10-24T00:54:19.551Z,84.10
2017-10-24T00:56:54.143Z,84.20
2017-10-24T00:59:27.993Z,83.80
2017-10-24T01:02:01.892Z,84.30
2017-10-24T01:04:36.393Z,84.30
2017-10-24T01:07:10.173Z,84.30
2017-10-24T01:09:43.923Z,84.30
2017-10-24T01:12:17.783Z,83.80
2017-10-24T01:14:51.691Z,83.60
2017-10-24T01:17:25.489Z,83.40
2017-10-24T01:19:59.332Z,83.10
2017-10-24T01:22:33.788Z,83.50
2017-10-24T01:25:08.309Z,83.80
2017-10-24T01:27:41.928Z,83.60
2017-10-24T01:30:15.627Z,84.10
2017-10-24T01:32:49.435Z,83.80
2017-10-24T01:35:23.212Z,84.60
2017-10-24T01:37:57.755Z,84.20
2017-10-24T01:40:32.156Z,83.60
2017-10-24T01:43:05.848Z,83.60
2017-10-24T01:45:39.702Z,83.40
2017-10-24T01:48:13.908Z,83.60
2017-10-24T01:50:48.476Z,83.80
2017-10-24T01:53:22.317Z,83.70
2017-10-24T01:55:56.173Z,83.00
2017-10-24T01:58:30.159Z,82.80
2017-10-24T02:01:03.869Z,82.30
2017-10-24T02:03:37.560Z,82.50
2017-10-24T02:06:11.353Z,82.10
2017-10-24T02:08:45.134Z,82.40
2017-10-24T02:11:19.014Z,82.90
2017-10-24T02:13:53.523Z,82.90
2017-10-24T02:16:27.398Z,82.90
2017-10-24T02:19:01.267Z,83.10
2017-10-24T02:21:35.001Z,82.90
2017-10-24T02:24:08.898Z,83.30
2017-10-24T02:26:42.721Z,83.70
2017-10-24T02:29:17.283Z,83.80
2017-10-24T02:31:51.760Z,84.10
2017-10-24T02:34:25.464Z,83.70
2017-10-24T02:36:59.236Z,83.80
2017-10-24T02:39:33.003Z,84.30
2017-10-24T02:42:06.788Z,84.30
2017-10-24T02:44:40.518Z,84.50
2017-10-24T02:47:14.292Z,84.20
2017-10-24T02:49:47.994Z,84.20
2017-10-24T02:52:21.759Z,84.40
2017-10-24T02:54:56.459Z,84.90
2017-10-24T02:57:30.203Z,84.50
2017-10-24T03:00:04.719Z,84.80
2017-10-24T03:02:38.568Z,84.70
2017-10-24T03:05:13.027Z,85.40
2017-10-24T03:07:47.692Z,85.40
2017-10-24T03:10:22.077Z,85.30
2017-10-24T03:12:55.782Z,85.30
2017-10-24T03:15:29.445Z,84.80
2017-10-24T03:18:03.376Z,84.90
2017-10-24T03:20:37.014Z,84.90
2017-10-24T03:23:11.645Z,85.70
2017-10-24T03:25:45.250Z,85.70
2017-10-24T03:28:18.972Z,85.20
2017-10-24T03:30:52.785Z,84.70
2017-10-24T03:33:26.478Z,84.70
2017-10-24T03:36:00.207Z,85.30
2017-10-24T03:38:34.115Z,85.00
2017-10-24T03:41:07.952Z,85.00
2017-10-24T03:43:41.722Z,85.60
2017-10-24T03:46:16.101Z,85.70
2017-10-24T03:48:50.534Z,85.70
2017-10-24T03:51:25.182Z,85.70
2017-10-24T03:53:59.018Z,85.30
2017-10-24T03:56:33.566Z,85.50
2017-10-24T03:59:07.334Z,85.10
2017-10-24T04:01:41.021Z,85.60
2017-10-24T04:04:15.878Z,85.20
2017-10-24T04:06:49.554Z,85.70
2017-10-24T04:09:23.386Z,85.70
2017-10-24T04:11:57.166Z,85.80
2017-10-24T04:14:31.941Z,85.90
2017-10-24T04:17:06.526Z,86.20
2017-10-24T04:19:40.201Z,86.00
2017-10-24T04:22:13.981Z,85.80
2017-10-24T04:24:47.832Z,85.70
2017-10-24T04:27:21.517Z,86.30
2017-10-24T04:29:56.116Z,85.30
2017-10-24T04:32:29.674Z,84.60
2017-10-24T04:35:04.338Z,84.80
2017-10-24T04:37:38.208Z,84.30
2017-10-24T04:40:12.122Z,84.90
2017-10-24T04:42:45.839Z,84.60
2017-10-24T04:45:19.623Z,85.10
2017-10-24T04:47:54.154Z,85.50
2017-10-24T04:50:28.151Z,84.70
2017-10-24T04:53:01.809Z,84.60
2017-10-24T04:55:35.691Z,84.60
2017-10-24T04:58:09.536Z,85.20
2017-10-24T05:00:43.352Z,84.90
2017-10-24T05:03:17.129Z,84.90
2017-10-24T05:05:51.228Z,85.20
2017-10-24T05:08:25.088Z,85.70
2017-10-24T05:10:59.152Z,85.30
2017-10-24T05:13:33.786Z,85.90
2017-10-24T05:16:07.448Z,85.50
2017-10-24T05:18:41.883Z,86.80
2017-10-24T05:21:16.455Z,86.20
2017-10-24T05:23:51.133Z,85.90
2017-10-24T05:26:24.897Z,86.00
2017-10-24T05:28:58.591Z,86.40
2017-10-24T05:31:33.053Z,87.60
2017-10-24T05:34:07.613Z,87.00
2017-10-24T05:36:41.414Z,86.40
2017-10-24T05:39:15.154Z,86.80
2017-10-24T05:41:48.890Z,86.00
2017-10-24T05:44:22.635Z,86.50
2017-10-24T05:46:56.521Z,86.20
2017-10-24T05:49:30.319Z,86.20
2017-10-24T05:52:04.137Z,85.60
2017-10-24T05:54:37.976Z,85.70
2017-10-24T05:57:11.696Z,86.10
2017-10-24T05:59:45.460Z,85.90
2017-10-24T06:02:19.264Z,86.30
2017-10-24T06:04:52.972Z,86.30
2017-10-24T06:07:26.739Z,86.40
2017-10-24T06:10:00.586Z,86.20
2017-10-24T06:12:34.850Z,85.70
2017-10-24T06:15:08.652Z,85.70
2017-10-24T06:17:43.256Z,86.10
2017-10-24T06:20:17.222Z,85.50
2017-10-24T06:22:50.949Z,85.50
2017-10-24T06:25:24.625Z,88.40
2017-10-24T06:27:59.248Z,85.80
2017-10-24T06:30:32.824Z,85.80
2017-10-24T06:33:06.655Z,85.90
2017-10-24T06:35:41.174Z,85.80
2017-10-24T06:38:15.687Z,85.80
2017-10-24T06:40:49.495Z,85.70
2017-10-24T06:43:23.113Z,85.80
2017-10-24T06:45:56.902Z,86.00
2017-10-24T06:48:31.405Z,85.40
2017-10-24T06:51:05.189Z,85.90
2017-10-24T06:53:39.756Z,85.90
2017-10-24T06:56:13.505Z,85.80
2017-10-24T06:58:47.480Z,85.70
2017-10-24T07:01:21.327Z,85.70
2017-10-24T07:03:55.104Z,85.50
2017-10-24T07:06:28.929Z,85.00
2017-10-24T07:09:02.902Z,85.60
2017-10-24T07:11:36.760Z,85.60
2017-10-24T07:14:10.601Z,85.30
2017-10-24T07:16:44.486Z,85.30
2017-10-24T07:19:18.971Z,85.70
2017-10-24T07:21:52.614Z,84.80
2017-10-24T07:24:26.511Z,84.60
2017-10-24T07:27:00.271Z,84.80
2017-10-24T07:29:34.116Z,84.70
2017-10-24T07:32:08.770Z,84.40
2017-10-24T07:34:44.004Z,84.00
2017-10-24T07:37:18.646Z,83.80
2017-10-24T07:39:52.497Z,83.80
2017-10-24T07:42:26.237Z,83.60
2017-10-24T07:45:00.949Z,83.40
2017-10-24T07:47:34.531Z,83.00
2017-10-24T07:50:08.305Z,82.70
2017-10-24T07:52:42.182Z,82.80
2017-10-24T07:55:16.722Z,82.10
2017-10-24T07:57:50.412Z,82.00
2017-10-24T08:00:24.926Z,82.50
2017-10-24T08:02:58.667Z,81.80
2017-10-24T08:05:33.094Z,81.30
2017-10-24T08:08:06.853Z,81.40
2017-10-24T08:10:40.650Z,80.70
2017-10-24T08:13:14.399Z,80.20
2017-10-24T08:15:48.244Z,80.30
2017-10-24T08:18:22.814Z,80.00
2017-10-24T08:20:56.739Z,80.00
2017-10-24T08:23:30.628Z,80.10
2017-10-24T08:26:04.427Z,79.80
2017-10-24T08:28:38.159Z,79.60
2017-10-24T08:31:11.830Z,79.80
2017-10-24T08:33:45.598Z,80.30
2017-10-24T08:36:19.413Z,80.30
2017-10-24T08:38:53.873Z,79.90
2017-10-24T08:41:27.662Z,79.70
2017-10-24T08:44:01.411Z,80.10
2017-10-24T08:46:35.908Z,80.40
2017-10-24T08:49:09.809Z,80.40
2017-10-24T08:51:43.502Z,80.30
2017-10-24T08:54:17.245Z,80.40
2017-10-24T08:56:51.833Z,80.10
2017-10-24T08:59:25.576Z,80.10
2017-10-24T09:01:59.282Z,78.70
2017-10-24T09:04:33.015Z,79.80
2017-10-24T09:10:05.541Z,79.30
2017-10-24T09:12:40.185Z,79.50
2017-10-24T09:15:21.744Z,80.00
2017-10-24T09:17:55.419Z,79.90
2017-10-24T09:20:29.225Z,80.40
2017-10-24T09:23:02.858Z,79.60
2017-10-24T09:25:36.489Z,79.80
2017-10-24T09:28:10.441Z,80.00
2017-10-24T09:30:44.189Z,80.00
2017-10-24T09:33:18.696Z,80.60
2017-10-24T09:35:53.242Z,80.80
2017-10-24T09:38:27.636Z,80.30
2017-10-24T09:41:10.009Z,79.90
2017-10-24T09:43:43.733Z,80.70
2017-10-24T09:46:36.286Z,80.40
2017-10-24T09:49:10.038Z,81.50
2017-10-24T09:51:43.976Z,80.50
2017-10-24T09:54:17.710Z,80.60
2017-10-24T09:56:51.521Z,79.00
2017-10-24T09:59:40.154Z,78.70
2017-10-24T10:02:13.904Z,78.30
2017-10-24T10:04:47.713Z,76.30
2017-10-24T10:07:22.179Z,76.80
2017-10-24T10:09:55.857Z,79.00
2017-10-24T10:12:29.713Z,76.10
2017-10-24T10:15:04.241Z,77.50
2017-10-24T10:17:38.758Z,78.40
2017-10-24T10:20:12.623Z,77.50
2017-10-24T10:22:46.969Z,77.30
2017-10-24T10:25:20.654Z,77.60
2017-10-24T10:27:54.411Z,78.00
2017-10-24T10:30:28.109Z,77.80
2017-10-24T10:33:01.861Z,78.30
2017-10-24T10:35:35.671Z,78.30
2017-10-24T10:38:09.532Z,78.20
2017-10-24T10:40:43.499Z,78.20
2017-10-24T10:43:17.489Z,77.60
2017-10-24T10:45:51.105Z,78.00
2017-10-24T10:48:24.996Z,77.50
2017-10-24T10:50:58.847Z,78.00
2017-10-24T10:53:32.575Z,78.30
2017-10-24T10:56:06.489Z,78.40
2017-10-24T10:58:40.302Z,79.00
2017-10-24T11:01:14.118Z,79.00
2017-10-24T11:03:48.698Z,79.30
2017-10-24T11:06:22.474Z,79.30
2017-10-24T11:08:56.354Z,78.90
2017-10-24T11:11:30.043Z,79.70
2017-10-24T11:14:04.001Z,79.20
2017-10-24T11:16:37.746Z,79.70
2017-10-24T11:19:11.550Z,80.00
2017-10-24T11:21:45.311Z,79.40
2017-10-24T11:24:19.156Z,78.80
2017-10-24T11:26:52.825Z,78.60
2017-10-24T11:29:26.638Z,79.10
2017-10-24T11:32:00.730Z,79.00
2017-10-24T11:34:35.215Z,79.10
2017-10-24T11:37:09.025Z,79.00
2017-10-24T11:39:42.896Z,79.20
2017-10-24T11:42:16.732Z,78.70
2017-10-24T11:44:51.351Z,79.80
2017-10-24T11:47:26.758Z,79.50
2017-10-24T11:50:00.490Z,79.00
2017-10-24T11:52:35.043Z,80.10
2017-10-24T11:55:09.636Z,79.70
2017-10-24T11:57:43.313Z,79.70
2017-10-24T12:00:17.257Z,79.20
2017-10-24T12:02:52.345Z,80.00
2017-10-24T12:05:26.105Z,80.30
2017-10-24T12:08:00.006Z,80.00
2017-10-24T12:10:33.862Z,80.50
2017-10-24T12:13:07.633Z,80.70
2017-10-24T12:15:41.489Z,80.30
2017-10-24T12:18:16.016Z,80.50
2017-10-24T12:20:49.820Z,81.00
2017-10-24T12:23:23.621Z,81.10
2017-10-24T12:25:57.359Z,80.80
2017-10-24T12:28:31.033Z,81.20
2017-10-24T12:31:05.142Z,80.90
2017-10-24T12:33:38.849Z,80.80
2017-10-24T12:36:12.625Z,80.80
2017-10-24T12:38:46.265Z,81.60
2017-10-24T12:41:20.032Z,81.20
2017-10-24T12:47:20.401Z,80.90
2017-10-24T12:50:00.072Z,80.50
2017-10-24T12:52:33.863Z,80.80
2017-10-24T12:55:08.339Z,81.30
2017-10-24T13:00:46.886Z,80.40
2017-10-24T13:03:20.743Z,80.60
2017-10-24T13:05:54.526Z,80.70
2017-10-24T13:08:28.287Z,81.70
2017-10-24T13:11:02.096Z,81.70
2017-10-24T13:13:35.967Z,82.60
2017-10-24T13:16:09.787Z,82.10
2017-10-24T13:18:44.251Z,82.20
2017-10-24T13:21:18.065Z,82.20
2017-10-24T13:23:51.713Z,82.30
2017-10-24T13:26:25.546Z,82.60
2017-10-24T13:28:59.170Z,82.80
2017-10-24T13:31:32.905Z,82.80
2017-10-24T13:34:06.774Z,82.80
2017-10-24T13:36:40.603Z,82.80
2017-10-24T13:39:14.405Z,82.30
2017-10-24T13:41:48.918Z,82.80
2017-10-24T13:44:23.480Z,82.80
2017-10-24T13:46:57.213Z,82.20
2017-10-24T13:49:31.075Z,82.10
2017-10-24T13:52:04.972Z,82.40
2017-10-24T13:54:38.885Z,82.40
2017-10-24T13:57:13.389Z,82.30
2017-10-24T13:59:48.034Z,82.80
2017-10-24T14:02:21.889Z,82.00
2017-10-24T14:05:02.329Z,82.10
2017-10-24T14:07:41.793Z,81.30
2017-10-24T14:10:22.180Z,81.60
2017-10-24T14:12:55.843Z,80.90
2017-10-24T14:15:30.461Z,81.30
2017-10-24T14:18:04.936Z,80.80
2017-10-24T14:20:38.654Z,80.30
2017-10-24T14:23:12.448Z,80.10
2017-10-24T14:25:46.300Z,80.20
2017-10-24T14:28:20.247Z,80.10
2017-10-24T14:30:54.079Z,80.10
2017-10-24T14:33:27.971Z,80.90
2017-10-24T14:36:01.813Z,80.60
2017-10-24T14:38:35.686Z,81.10
2017-10-24T14:41:10.287Z,80.80
2017-10-24T14:43:44.978Z,81.50
2017-10-24T14:46:18.918Z,81.20
2017-10-24T14:48:52.728Z,81.60
2017-10-24T14:51:26.468Z,81.60
2017-10-24T14:54:00.307Z,81.60
2017-10-24T14:56:34.034Z,81.50
2017-10-24T14:59:07.826Z,81.70
2017-10-24T15:01:41.596Z,82.20
2017-10-24T15:04:15.420Z,81.60
2017-10-24T15:06:49.134Z,82.00
2017-10-24T15:09:22.949Z,82.30
2017-10-24T15:11:56.656Z,82.30
2017-10-24T15:14:30.575Z,81.90
2017-10-24T15:17:04.451Z,81.90
2017-10-24T15:19:38.410Z,82.40
2017-10-24T15:22:12.237Z,82.60
2017-10-24T15:24:46.044Z,82.80
2017-10-24T15:27:19.807Z,82.50
2017-10-24T15:29:54.247Z,83.00
2017-10-24T15:32:27.997Z,83.00
2017-10-24T15:35:01.798Z,82.50
2017-10-24T15:37:35.465Z,83.20
2017-10-24T15:40:09.234Z,83.20
2017-10-24T15:42:42.980Z,82.80
2017-10-24T15:45:16.629Z,82.70
2017-10-24T15:47:50.296Z,82.90
2017-10-24T15:50:24.027Z,83.10
2017-10-24T15:52:57.805Z,83.60
2017-10-24T15:55:31.490Z,83.70
2017-10-24T15:58:05.248Z,84.50
2017-10-24T16:00:39.020Z,83.70
2017-10-24T16:03:12.761Z,84.10
2017-10-24T16:05:46.605Z,84.00
2017-10-24T16:08:20.319Z,84.60
2017-10-24T16:10:54.122Z,84.50
2017-10-24T16:13:28.180Z,85.90
2017-10-24T16:16:01.944Z,86.60
2017-10-24T16:18:35.736Z,85.10
2017-10-24T16:21:10.214Z,86.30
2017-10-24T16:23:43.926Z,85.60
2017-10-24T16:26:17.710Z,85.50
2017-10-24T16:28:52.346Z,86.10
2017-10-24T16:31:26.830Z,86.10
2017-10-24T16:34:00.787Z,85.80
2017-10-24T16:36:34.581Z,85.80
2017-10-24T16:39:08.797Z,86.60
2017-10-24T16:41:42.586Z,88.60
2017-10-24T16:44:16.269Z,90.40
2017-10-24T16:46:50.410Z,90.80
2017-10-24T16:49:24.912Z,90.60
2017-10-24T16:51:58.510Z,90.60
2017-10-24T16:54:32.732Z,90.70
2017-10-24T16:57:07.854Z,91.20
2017-10-24T16:59:42.366Z,90.50
2017-10-24T17:02:16.984Z,90.90
2017-10-24T17:04:50.615Z,90.70
2017-10-24T17:07:25.927Z,90.80
2017-10-24T17:10:00.355Z,90.40
2017-10-24T17:12:35.382Z,90.80
2017-10-24T17:15:09.911Z,90.30
2017-10-24T17:17:43.688Z,90.20
2017-10-24T17:20:17.456Z,90.20
2017-10-24T17:22:51.268Z,90.40
2017-10-24T17:25:25.008Z,90.20
2017-10-24T17:27:59.150Z,90.20
2017-10-24T17:30:33.364Z,90.10
2017-10-24T17:33:08.061Z,90.10
2017-10-24T17:53:51.290Z,90.10
2017-10-24T17:56:25.100Z,90.00
2017-10-24T17:58:59.441Z,90.00
2017-10-24T18:01:33.482Z,90.20
2017-10-24T18:06:42.529Z,90.10
2017-10-24T18:09:16.446Z,90.20
2017-10-24T18:14:25.482Z,90.00
2017-10-24T18:19:35.672Z,89.80
2017-10-24T18:22:09.361Z,90.20
2017-10-24T18:24:43.193Z,90.20
2017-10-24T18:27:16.912Z,90.10
2017-10-24T18:29:50.727Z,90.10
2017-10-24T18:32:24.537Z,90.20
2017-10-24T18:34:58.420Z,90.30
2017-10-24T18:37:32.201Z,90.20
2017-10-24T18:40:06.106Z,90.20
2017-10-24T18:42:39.963Z,90.10
2017-10-24T18:45:14.525Z,90.20
2017-10-24T18:47:49.086Z,90.10
2017-10-24T18:50:22.974Z,90.10
2017-10-24T18:52:56.823Z,90.10
2017-10-24T18:55:30.594Z,90.10
2017-10-24T18:58:05.220Z,90.20
2017-10-24T19:00:38.948Z,90.10
2017-10-24T19:03:12.574Z,90.10
2017-10-24T19:05:46.993Z,90.20
2017-10-24T19:08:20.701Z,90.20
2017-10-24T19:10:54.325Z,90.00
2017-10-24T19:13:28.147Z,90.10
2017-10-24T19:16:01.933Z,90.10
2017-10-24T19:18:35.735Z,90.10
2017-10-24T19:21:09.568Z,90.10
2017-10-24T19:23:43.466Z,90.00
2017-10-24T19:26:17.320Z,90.10
2017-10-24T19:28:51.106Z,90.00
2017-10-24T19:31:24.819Z,89.90
2017-10-24T19:33:58.634Z,89.70
2017-10-24T19:36:32.464Z,89.80
2017-10-24T19:39:06.350Z,89.70
2017-10-24T19:41:40.116Z,89.60
2017-10-24T19:44:13.837Z,89.80
2017-10-24T19:46:47.712Z,89.70
2017-10-24T19:49:21.453Z,89.80
2017-10-24T19:51:55.419Z,89.80
2017-10-24T19:54:29.309Z,89.90
2017-10-24T19:57:03.105Z,89.90
2017-10-24T19:59:36.879Z,89.80
2017-10-24T20:02:10.665Z,90.00
2017-10-24T20:04:44.375Z,90.00
2017-10-24T20:07:19.079Z,90.00
2017-10-24T20:09:54.193Z,90.10
2017-10-24T20:12:27.958Z,90.00
2017-10-24T20:15:01.852Z,90.00
2017-10-24T20:17:35.700Z,89.90
2017-10-24T20:20:09.560Z,89.50
2017-10-24T20:22:43.337Z,89.40
2017-10-24T20:25:17.238Z,89.90
2017-10-24T20:27:51.089Z,89.40
2017-10-24T20:30:25.609Z,90.00
2017-10-24T20:32:59.811Z,89.60
2017-10-24T20:35:33.669Z,90.00
2017-10-24T20:38:08.550Z,90.30
2017-10-24T20:40:43.121Z,89.70
2017-10-24T20:43:17.084Z,90.00
2017-10-24T20:45:51.663Z,90.20
2017-10-24T20:48:26.384Z,89.90
2017-10-24T20:51:03.510Z,90.00
2017-10-24T20:53:37.278Z,89.90
2017-10-24T20:56:11.081Z,89.90
2017-10-24T20:58:44.969Z,89.80
2017-10-24T21:01:18.693Z,89.80
2017-10-24T21:03:52.512Z,89.70
2017-10-24T21:06:26.250Z,90.10
2017-10-24T21:09:00.162Z,89.90
2017-10-24T21:11:34.703Z,90.00
2017-10-24T21:14:08.608Z,90.00
2017-10-24T21:16:42.474Z,90.00
2017-10-24T21:19:16.209Z,90.00
2017-10-24T21:21:50.936Z,90.30
2017-10-24T21:24:24.823Z,90.00
2017-10-24T21:26:58.621Z,90.00
2017-10-24T21:29:34.195Z,90.30
2017-10-24T21:32:07.867Z,90.00
2017-10-24T21:34:41.709Z,90.00
2017-10-24T21:37:15.867Z,90.00
2017-10-24T21:39:49.810Z,90.00
2017-10-24T21:42:23.842Z,90.00
2017-10-24T21:44:57.949Z,90.10
2017-10-24T21:47:32.584Z,90.40
2017-10-24T21:50:07.391Z,90.40
2017-10-24T21:52:42.075Z,90.50
2017-10-24T21:57:51.154Z,90.30
2017-10-24T22:03:29.899Z,90.40
2017-10-24T22:06:03.793Z,90.30
2017-10-24T22:08:37.511Z,90.30
2017-10-24T22:11:11.261Z,90.30
2017-10-24T22:13:46.532Z,90.40
2017-10-24T22:16:20.441Z,90.40
2017-10-24T22:18:54.129Z,90.30
2017-10-24T22:21:27.963Z,90.30
2017-10-24T22:26:39.313Z,90.30
2017-10-24T22:29:13.302Z,90.30
2017-10-24T22:31:48.114Z,90.30
2017-10-24T22:34:22.769Z,90.30
2017-10-24T22:36:57.543Z,90.60
2017-10-24T22:39:31.172Z,90.30
2017-10-24T22:42:06.289Z,90.20
2017-10-24T22:44:42.194Z,90.10
2017-10-24T22:47:17.414Z,90.50
2017-10-24T22:49:51.043Z,90.10
2017-10-24T22:52:24.670Z,90.10
2017-10-24T22:54:59.198Z,90.30
2017-10-24T22:57:32.985Z,90.00
2017-10-24T23:00:07.098Z,89.90
2017-10-24T23:02:40.832Z,89.80
2017-10-24T23:05:14.907Z,89.60
2017-10-24T23:07:49.629Z,89.50
2017-10-24T23:10:23.320Z,89.60
2017-10-24T23:12:57.498Z,89.60
2017-10-24T23:15:31.277Z,89.60
2017-10-24T23:18:05.481Z,89.60
2017-10-24T23:20:39.710Z,89.70
2017-10-24T23:23:13.557Z,89.70
2017-10-24T23:25:47.306Z,89.90
2017-10-24T23:28:21.121Z,89.80
2017-10-24T23:30:54.969Z,90.20
2017-10-24T23:33:29.342Z,90.00
2017-10-24T23:36:04.359Z,90.00
2017-10-24T23:38:38.177Z,90.10
2017-10-24T23:41:13.743Z,90.10
2017-10-24T23:43:50.608Z,90.10
2017-10-24T23:46:24.509Z,90.20
2017-10-24T23:48:59.136Z,90.60
2017-10-24T23:51:33.796Z,90.50
2017-10-24T23:54:07.829Z,90.70
2017-10-24T23:56:42.433Z,91.20
2017-10-24T23:59:16.941Z,91.20
